Time;durP1;ratioP1;P1;durP2;ratioP2;P2;SDS_P1;SDS_P2;PMS_P1;PMS_P2;Temp;Humidity;BMP_temperature;BMP_pressure;BME280_temperature;BME280_humidity;BME280_pressure;Samples;Min_cycle;Max_cycle;Signal;HPM_P1;HPM_P2
2021/06/14 00:00:10;;;;;;;4.90;2.20;;;;;;;12.83;nan;97322.78;3529031;40;20905;-72
2021/06/14 00:02:39;;;;;;;5.57;3.07;;;;;;;12.81;nan;97325.50;3530533;40;20477;-74
2021/06/14 00:05:10;;;;;;;7.00;2.70;;;;;;;12.79;nan;97326.56;3532863;40;20471;-74
2021/06/14 00:07:38;;;;;;;14.03;3.30;;;;;;;12.58;nan;97327.00;3530524;40;20549;-74
2021/06/14 00:10:07;;;;;;;4.63;2.60;;;;;;;12.55;nan;97324.59;3531170;40;20565;-75
2021/06/14 00:12:35;;;;;;;9.00;2.40;;;;;;;12.22;nan;97323.19;3523092;40;20476;-72
2021/06/14 00:15:07;;;;;;;5.80;2.50;;;;;;;12.36;nan;97324.94;3533059;40;20814;-74
2021/06/14 00:17:36;;;;;;;5.50;2.60;;;;;;;12.45;nan;97329.59;3523903;40;20862;-72
2021/06/14 00:20:07;;;;;;;5.60;2.77;;;;;;;12.35;nan;97323.25;3518048;40;21188;-72
2021/06/14 00:22:35;;;;;;;4.07;2.60;;;;;;;12.36;nan;97322.31;3530435;40;20465;-73
2021/06/14 00:25:04;;;;;;;4.13;2.70;;;;;;;12.42;nan;97327.16;3530700;40;20769;-73
2021/06/14 00:27:32;;;;;;;6.87;2.70;;;;;;;12.46;nan;97325.19;3533408;40;20836;-72
2021/06/14 00:30:00;;;;;;;10.63;2.70;;;;;;;12.49;nan;97324.16;3529238;40;20843;-73
2021/06/14 00:32:28;;;;;;;4.37;2.63;;;;;;;12.42;nan;97321.06;3527922;40;20859;-73
2021/06/14 00:34:57;;;;;;;7.07;2.93;;;;;;;12.24;nan;97286.34;3514486;40;20680;-71
2021/06/14 00:37:25;;;;;;;6.83;3.03;;;;;;;12.33;nan;97314.63;3531079;40;20853;-71
2021/06/14 00:39:53;;;;;;;7.83;3.57;;;;;;;12.24;nan;97313.44;3534250;40;20723;-74
2021/06/14 00:42:21;;;;;;;13.83;3.30;;;;;;;12.24;nan;97310.81;3530846;40;20806;-74
2021/06/14 00:44:49;;;;;;;8.63;3.27;;;;;;;12.24;nan;97304.72;3528727;40;20483;-74
2021/06/14 00:47:17;;;;;;;12.97;3.93;;;;;;;12.21;nan;97313.66;3530808;40;20447;-73
2021/06/14 00:49:45;;;;;;;6.07;3.10;;;;;;;12.23;nan;97300.41;3529415;40;20570;-73
2021/06/14 00:52:14;;;;;;;9.07;3.63;;;;;;;12.21;nan;97302.28;3512660;40;20478;-74
2021/06/14 00:54:42;;;;;;;8.13;3.20;;;;;;;12.24;nan;97299.47;3529062;40;20928;-73
2021/06/14 00:57:10;;;;;;;6.43;3.00;;;;;;;12.04;nan;97304.22;3529910;40;20480;-73
2021/06/14 00:59:38;;;;;;;4.43;3.00;;;;;;;12.04;nan;97300.75;3531744;40;20921;-73
2021/06/14 01:02:06;;;;;;;8.53;3.40;;;;;;;12.11;nan;97299.41;3533124;40;20453;-73
2021/06/14 01:04:34;;;;;;;11.70;3.07;;;;;;;12.06;nan;97294.44;3534638;40;20473;-73
2021/06/14 01:07:03;;;;;;;6.73;2.80;;;;;;;12.07;nan;97290.91;3530045;40;20709;-74
2021/06/14 01:09:32;;;;;;;9.50;3.30;;;;;;;12.05;nan;97300.66;3534123;40;20485;-73
2021/06/14 01:12:08;;;;;;;6.93;3.13;;;;;;;12.06;nan;97291.00;3524157;40;21095;-73
2021/06/14 01:14:43;;;;;;;4.77;2.67;;;;;;;11.88;nan;97278.06;3532601;40;20460;-73
2021/06/14 01:17:16;;;;;;;4.77;3.03;;;;;;;11.76;nan;97280.59;3528705;40;20457;-73
2021/06/14 01:20:14;;;;;;;3.47;2.80;;;;;;;11.83;nan;97284.53;3527134;40;20472;-73
2021/06/14 01:23:18;;;;;;;4.03;2.87;;;;;;;11.40;nan;97281.97;3529295;40;20466;-73
2021/06/14 01:25:51;;;;;;;8.30;2.97;;;;;;;11.64;nan;97277.84;3529264;40;20481;-72
2021/06/14 01:28:22;;;;;;;6.30;3.30;;;;;;;11.73;nan;97265.91;3531933;40;20570;-73
2021/06/14 01:30:52;;;;;;;10.83;2.63;;;;;;;11.72;nan;97266.00;3527799;40;20465;-72
2021/06/14 01:33:23;;;;;;;5.83;3.00;;;;;;;11.81;nan;97261.00;3526257;40;20535;-72
2021/06/14 01:35:53;;;;;;;3.10;2.10;;;;;;;11.71;nan;97262.53;3527274;40;20874;-73
2021/06/14 01:38:24;;;;;;;4.80;2.70;;;;;;;11.43;nan;97242.44;3532651;40;20711;-72
2021/06/14 01:40:56;;;;;;;5.27;3.00;;;;;;;11.54;nan;97255.72;3522346;40;20492;-72
2021/06/14 01:43:28;;;;;;;6.97;3.30;;;;;;;11.61;nan;97253.56;3530462;40;20802;-72
2021/06/14 01:46:01;;;;;;;6.27;2.57;;;;;;;11.53;nan;97256.66;3528986;40;20473;-72
2021/06/14 01:48:30;;;;;;;4.80;2.80;;;;;;;11.47;nan;97250.00;3528252;40;20742;-72
2021/06/14 01:50:59;;;;;;;4.33;2.50;;;;;;;11.37;nan;97255.91;3532062;40;20536;-73
2021/06/14 01:53:27;;;;;;;7.20;2.60;;;;;;;11.20;nan;97235.97;3529529;40;20546;-72
2021/06/14 01:55:56;;;;;;;3.50;2.40;;;;;;;11.31;nan;97245.78;3521108;40;20928;-71
2021/06/14 01:58:26;;;;;;;15.90;3.57;;;;;;;11.00;nan;97231.97;3527382;40;21281;-73
2021/06/14 02:00:55;;;;;;;4.63;3.07;;;;;;;11.07;nan;97248.97;3529251;40;20560;-72
2021/06/14 02:03:24;;;;;;;8.87;2.40;;;;;;;11.03;nan;97257.97;3531096;40;20785;-72
2021/06/14 02:05:53;;;;;;;6.40;2.80;;;;;;;10.98;nan;97257.41;3533125;40;20484;-72
2021/06/14 02:08:22;;;;;;;5.47;3.00;;;;;;;10.81;nan;97258.41;3528369;40;21041;-73
2021/06/14 02:10:51;;;;;;;8.10;3.00;;;;;;;10.58;nan;97251.91;3528092;40;20563;-72
2021/06/14 02:13:20;;;;;;;11.37;3.00;;;;;;;10.34;nan;97262.88;3532392;40;20532;-73
2021/06/14 02:15:50;;;;;;;6.30;3.30;;;;;;;10.46;nan;97267.38;3528781;40;20485;-73
2021/06/14 02:18:22;;;;;;;9.10;2.80;;;;;;;10.51;nan;97250.59;3531362;40;20454;-73
2021/06/14 02:20:51;;;;;;;4.70;2.13;;;;;;;10.36;nan;97258.38;3529612;40;20725;-73
2021/06/14 02:23:19;;;;;;;7.40;3.00;;;;;;;10.45;nan;97257.84;3513484;40;20787;-73
2021/06/14 02:25:47;;;;;;;7.00;2.73;;;;;;;10.54;nan;97245.16;3529988;40;20461;-73
2021/06/14 02:28:15;;;;;;;4.53;2.87;;;;;;;10.70;nan;97251.16;3528982;40;20835;-73
2021/06/14 02:30:43;;;;;;;5.80;3.30;;;;;;;10.73;nan;97244.94;3532345;40;20558;-73
2021/06/14 02:33:13;;;;;;;8.90;3.20;;;;;;;10.65;nan;97253.25;3529536;40;20441;-73
2021/06/14 02:35:41;;;;;;;6.53;3.37;;;;;;;10.63;nan;97255.09;3527209;40;20470;-73
2021/06/14 02:38:11;;;;;;;6.67;3.20;;;;;;;10.69;nan;97254.75;3523142;40;20876;-73
2021/06/14 02:40:41;;;;;;;8.40;3.30;;;;;;;10.57;nan;97239.75;3531719;40;20531;-73
2021/06/14 02:43:11;;;;;;;7.07;2.90;;;;;;;10.72;nan;97254.53;3528263;40;20437;-73
2021/06/14 02:45:40;;;;;;;5.10;2.70;;;;;;;10.73;nan;97256.25;3519685;40;20474;-74
2021/06/14 02:48:10;;;;;;;4.50;3.30;;;;;;;10.73;nan;97251.00;3521187;40;20512;-74
2021/06/14 02:50:40;;;;;;;6.87;3.17;;;;;;;10.54;nan;97256.47;3528472;40;20944;-72
2021/06/14 02:53:12;;;;;;;7.10;3.10;;;;;;;10.43;nan;97244.00;3520527;40;20745;-73
2021/06/14 02:55:51;;;;;;;5.30;3.07;;;;;;;10.57;nan;97240.59;3527477;40;20547;-73
2021/06/14 02:58:27;;;;;;;6.93;3.43;;;;;;;10.59;nan;97246.56;3527194;40;20771;-73
2021/06/14 03:00:55;;;;;;;5.73;3.63;;;;;;;10.46;nan;97243.81;3517686;40;21092;-73
2021/06/14 03:03:23;;;;;;;5.47;3.17;;;;;;;10.42;nan;97237.06;3531226;40;20450;-74
2021/06/14 03:05:53;;;;;;;5.20;2.30;;;;;;;10.33;nan;97242.88;3526572;40;20504;-74
2021/06/14 03:08:22;;;;;;;4.50;2.80;;;;;;;10.42;nan;97238.84;3532793;40;20443;-74
2021/06/14 03:10:51;;;;;;;6.17;3.40;;;;;;;10.28;nan;97209.03;3520584;40;20557;-74
2021/06/14 03:13:19;;;;;;;7.27;3.03;;;;;;;10.48;nan;97236.72;3531576;40;20531;-73
2021/06/14 03:15:47;;;;;;;10.17;3.67;;;;;;;10.49;nan;97227.94;3531386;40;20826;-74
2021/06/14 03:18:17;;;;;;;8.27;3.57;;;;;;;10.56;nan;97225.78;3522864;40;20856;-73
2021/06/14 03:20:46;;;;;;;3.83;2.63;;;;;;;10.53;nan;97225.16;3527999;40;20466;-74
2021/06/14 03:23:16;;;;;;;9.00;3.03;;;;;;;10.48;nan;97218.38;3527883;40;20853;-75
2021/06/14 03:25:44;;;;;;;5.00;3.40;;;;;;;10.56;nan;97223.16;3527207;40;20458;-73
2021/06/14 03:28:15;;;;;;;9.97;3.30;;;;;;;10.60;nan;97223.84;3531136;40;20566;-73
2021/06/14 03:30:44;;;;;;;6.10;3.00;;;;;;;10.58;nan;97223.94;3532203;40;20602;-74
2021/06/14 03:33:16;;;;;;;6.80;2.70;;;;;;;10.43;nan;97219.63;3534039;40;21189;-73
2021/06/14 03:35:45;;;;;;;6.40;2.77;;;;;;;10.52;nan;97215.59;3522984;40;20823;-74
2021/06/14 03:38:13;;;;;;;11.53;2.70;;;;;;;10.65;nan;97216.56;3531781;40;20468;-72
2021/06/14 03:40:43;;;;;;;9.50;2.80;;;;;;;10.40;nan;97222.41;3531212;40;20763;-72
2021/06/14 03:43:11;;;;;;;7.00;2.90;;;;;;;10.17;nan;97213.22;3533076;40;20578;-73
2021/06/14 03:45:39;;;;;;;5.13;2.70;;;;;;;10.10;nan;97207.50;3533405;40;20565;-72
2021/06/14 03:48:07;;;;;;;9.30;3.07;;;;;;;10.33;nan;97216.69;3528655;40;20913;-72
2021/06/14 03:50:35;;;;;;;5.33;3.10;;;;;;;10.15;nan;97218.53;3518645;40;20563;-74
2021/06/14 03:53:03;;;;;;;8.83;2.73;;;;;;;10.17;nan;97216.66;3533750;40;20453;-74
2021/06/14 03:55:31;;;;;;;9.77;3.47;;;;;;;10.15;nan;97213.28;3531971;40;20782;-75
2021/06/14 03:58:00;;;;;;;4.83;2.63;;;;;;;10.18;nan;97217.53;3529114;40;20477;-74
2021/06/14 04:00:29;;;;;;;11.70;2.93;;;;;;;10.17;nan;97215.84;3529552;40;20886;-73
2021/06/14 04:02:57;;;;;;;6.83;3.00;;;;;;;10.14;nan;97218.63;3534113;40;20747;-76
2021/06/14 04:05:26;;;;;;;7.93;2.93;;;;;;;10.02;nan;97213.16;3533334;40;20770;-73
2021/06/14 04:07:54;;;;;;;7.53;3.10;;;;;;;9.62;nan;97211.94;3531953;40;20550;-74
2021/06/14 04:10:22;;;;;;;5.30;3.20;;;;;;;10.21;nan;97206.88;3532780;40;20898;-75
2021/06/14 04:12:50;;;;;;;14.83;3.67;;;;;;;10.42;nan;97205.66;3528471;40;20458;-74
2021/06/14 04:15:20;;;;;;;4.43;2.87;;;;;;;10.55;nan;97212.81;3528574;40;20567;-73
2021/06/14 04:17:48;;;;;;;9.10;2.90;;;;;;;10.74;nan;97213.41;3520059;40;20478;-74
2021/06/14 04:20:17;;;;;;;5.03;2.37;;;;;;;10.83;nan;97204.97;3528031;40;20974;-74
2021/06/14 04:22:46;;;;;;;4.57;3.03;;;;;;;10.78;nan;97203.56;3534768;40;20462;-73
2021/06/14 04:25:15;;;;;;;8.93;3.50;;;;;;;10.79;nan;97207.88;3519748;40;20460;-76
2021/06/14 04:27:44;;;;;;;7.40;3.77;;;;;;;10.78;nan;97203.56;3529930;40;20456;-73
2021/06/14 04:30:15;;;;;;;5.33;3.57;;;;;;;10.77;nan;97194.88;3528687;40;20912;-73
2021/06/14 04:32:45;;;;;;;5.83;3.27;;;;;;;10.72;nan;97202.16;3528284;40;20590;-73
2021/06/14 04:35:14;;;;;;;5.10;3.47;;;;;;;10.74;nan;97200.31;3530109;40;20464;-75
2021/06/14 04:37:42;;;;;;;5.67;3.10;;;;;;;10.76;nan;97208.91;3527322;40;20482;-74
2021/06/14 04:40:10;;;;;;;7.80;3.20;;;;;;;11.08;nan;97203.50;3530658;40;20477;-73
2021/06/14 04:42:38;;;;;;;5.30;3.13;;;;;;;10.82;nan;97211.16;3530833;40;20491;-73
2021/06/14 04:45:08;;;;;;;6.70;3.57;;;;;;;10.87;nan;97214.34;3535010;40;20781;-73
2021/06/14 04:47:36;;;;;;;5.63;2.97;;;;;;;11.27;nan;97204.06;3530127;40;20739;-73
2021/06/14 04:50:07;;;;;;;8.83;3.40;;;;;;;10.64;nan;97207.88;3529909;40;20903;-73
2021/06/14 04:52:35;;;;;;;4.20;2.73;;;;;;;11.03;nan;97200.31;3531052;40;20470;-73
2021/06/14 04:55:13;;;;;;;6.63;3.33;;;;;;;11.50;nan;97193.88;3529738;40;20759;-73
2021/06/14 04:57:41;;;;;;;7.77;3.50;;;;;;;11.84;nan;97197.00;3531702;40;20470;-73
2021/06/14 05:00:10;;;;;;;8.00;3.67;;;;;;;11.85;nan;97191.63;3532992;40;20559;-73
2021/06/14 05:02:38;;;;;;;9.13;3.63;;;;;;;11.78;nan;97192.13;3533103;40;20465;-73
2021/06/14 05:05:09;;;;;;;8.10;3.90;;;;;;;11.84;nan;97186.50;3532610;40;20476;-73
2021/06/14 05:07:37;;;;;;;8.50;3.50;;;;;;;12.04;nan;97190.50;3531203;40;21153;-73
2021/06/14 05:10:07;;;;;;;8.67;3.80;;;;;;;12.31;nan;97184.34;3525174;40;20881;-72
2021/06/14 05:12:34;;;;;;;5.30;3.47;;;;;;;12.46;nan;97191.22;3532632;40;20544;-73
2021/06/14 05:15:02;;;;;;;12.50;3.87;;;;;;;12.69;nan;97179.16;3528542;40;20477;-73
2021/06/14 05:17:30;;;;;;;14.00;3.47;;;;;;;12.37;nan;97184.81;3529513;40;20456;-73
2021/06/14 05:19:58;;;;;;;6.80;3.67;;;;;;;12.52;nan;97192.59;3530251;40;20453;-73
2021/06/14 05:22:27;;;;;;;6.33;3.20;;;;;;;12.89;nan;97182.22;3532058;40;20532;-71
2021/06/14 05:24:55;;;;;;;10.57;4.30;;;;;;;13.31;nan;97185.44;3527744;40;20839;-71
2021/06/14 05:27:24;;;;;;;8.30;3.10;;;;;;;13.29;nan;97188.16;3520882;40;20489;-71
2021/06/14 05:29:52;;;;;;;35.00;15.87;;;;;;;13.28;nan;97178.59;3528252;40;20477;-72
2021/06/14 05:32:20;;;;;;;6.60;3.67;;;;;;;13.30;nan;97186.41;3514424;40;20824;-71
2021/06/14 05:34:48;;;;;;;8.90;3.70;;;;;;;13.28;nan;97180.38;3524447;40;20754;-71
2021/06/14 05:37:16;;;;;;;16.10;4.00;;;;;;;13.25;nan;97171.75;3531110;40;20506;-73
2021/06/14 05:39:45;;;;;;;7.63;3.93;;;;;;;13.79;nan;97175.00;3531404;40;20924;-73
2021/06/14 05:42:13;;;;;;;8.20;3.17;;;;;;;14.11;nan;97170.00;3531258;40;20692;-73
2021/06/14 05:44:41;;;;;;;6.47;3.47;;;;;;;14.46;nan;97176.22;3532247;40;20845;-73
2021/06/14 05:47:09;;;;;;;6.77;3.53;;;;;;;14.85;nan;97179.47;3528510;40;20942;-74
2021/06/14 05:49:37;;;;;;;12.83;3.57;;;;;;;15.12;nan;97177.31;3521612;40;20844;-73
2021/06/14 05:52:05;;;;;;;5.60;2.03;;;;;;;14.90;nan;97167.59;3520434;40;20512;-73
2021/06/14 05:54:33;;;;;;;8.70;3.40;;;;;;;15.35;nan;97172.06;3531810;40;20469;-73
2021/06/14 05:57:08;;;;;;;9.13;2.33;;;;;;;15.68;nan;97175.56;3533344;40;20456;-72
2021/06/14 05:59:36;;;;;;;4.93;2.27;;;;;;;15.71;nan;97180.63;3535534;40;20498;-71
2021/06/14 06:02:05;;;;;;;6.27;2.10;;;;;;;15.78;nan;97177.41;3532605;40;20735;-71
2021/06/14 06:04:33;;;;;;;9.77;2.33;;;;;;;16.02;nan;97182.47;3530476;40;20507;-70
2021/06/14 06:07:01;;;;;;;5.53;2.67;;;;;;;16.47;nan;97178.00;3531786;40;20471;-72
2021/06/14 06:09:29;;;;;;;15.00;2.80;;;;;;;16.76;nan;97189.59;3531933;40;20582;-71
2021/06/14 06:11:57;;;;;;;11.70;2.40;;;;;;;16.87;nan;97186.06;3531097;40;20885;-71
2021/06/14 06:14:27;;;;;;;8.17;2.67;;;;;;;16.31;nan;97183.72;3531389;40;20456;-71
2021/06/14 06:16:55;;;;;;;7.23;2.33;;;;;;;16.66;nan;97188.69;3529494;40;20473;-71
2021/06/14 06:19:23;;;;;;;11.63;2.50;;;;;;;16.95;nan;97178.28;3530682;40;20727;-70
2021/06/14 06:21:51;;;;;;;8.60;2.40;;;;;;;16.62;nan;97176.69;3534243;40;20511;-70
2021/06/14 06:24:19;;;;;;;6.43;2.17;;;;;;;16.78;nan;97173.59;3531114;40;21458;-71
2021/06/14 06:26:47;;;;;;;9.43;2.30;;;;;;;17.02;nan;97172.50;3521508;40;20518;-71
2021/06/14 06:29:15;;;;;;;12.23;3.23;;;;;;;17.15;nan;97166.03;3530370;40;20484;-70
2021/06/14 06:31:45;;;;;;;12.13;2.67;;;;;;;17.51;nan;97161.13;3515822;40;20707;-71
2021/06/14 06:34:13;;;;;;;4.53;2.37;;;;;;;17.34;nan;97159.94;3527712;40;20475;-70
2021/06/14 06:36:42;;;;;;;8.53;2.50;;;;;;;17.23;nan;97156.56;3531410;40;20846;-71
2021/06/14 06:39:11;;;;;;;10.00;2.50;;;;;;;17.42;nan;97161.91;3531255;40;20547;-71
2021/06/14 06:41:38;;;;;;;5.47;2.70;;;;;;;17.92;nan;97147.84;3527786;40;20454;-71
2021/06/14 06:44:08;;;;;;;4.90;2.30;;;;;;;18.05;nan;97153.69;3530285;40;21187;-70
2021/06/14 06:46:36;;;;;;;5.43;1.77;;;;;;;17.87;nan;97161.50;3533554;40;20527;-70
2021/06/14 06:49:06;;;;;;;7.23;2.87;;;;;;;18.08;nan;97164.03;3527479;40;20853;-70
2021/06/14 06:51:34;;;;;;;4.63;2.40;;;;;;;17.72;nan;97158.41;3528910;40;20604;-73
2021/06/14 06:54:14;;;;;;;5.70;2.33;;;;;;;17.31;nan;97152.28;3527696;40;20842;-70
2021/06/14 06:56:47;;;;;;;4.63;2.37;;;;;;;17.71;nan;97161.16;3527428;40;20854;-71
2021/06/14 06:59:15;;;;;;;7.73;2.50;;;;;;;17.64;nan;97166.19;3530799;40;20874;-70
2021/06/14 07:01:44;;;;;;;7.93;3.17;;;;;;;17.75;nan;97146.69;3534528;40;20465;-70
2021/06/14 07:04:14;;;;;;;7.00;2.50;;;;;;;18.20;nan;97150.66;3534697;40;20502;-70
2021/06/14 07:06:42;;;;;;;5.50;2.33;;;;;;;17.86;nan;97143.13;3531582;40;20962;-71
2021/06/14 07:09:11;;;;;;;6.57;2.40;;;;;;;18.07;nan;97156.22;3530920;40;20471;-71
2021/06/14 07:11:39;;;;;;;13.60;3.07;;;;;;;18.16;nan;97158.88;3532457;40;20952;-70
2021/06/14 07:14:08;;;;;;;4.50;2.13;;;;;;;18.19;nan;97149.81;3533426;40;20962;-69
2021/06/14 07:16:36;;;;;;;12.87;2.77;;;;;;;18.47;nan;97157.91;3532755;40;20551;-70
2021/06/14 07:19:05;;;;;;;6.13;2.83;;;;;;;18.42;nan;97160.13;3533445;40;20493;-70
2021/06/14 07:21:35;;;;;;;7.80;2.63;;;;;;;18.91;nan;97171.53;3533432;40;20516;-70
2021/06/14 07:24:04;;;;;;;7.57;2.47;;;;;;;19.02;nan;97165.22;3524983;40;20469;-70
2021/06/14 07:26:33;;;;;;;30.40;2.73;;;;;;;19.22;nan;97163.31;3532870;40;20539;-70
2021/06/14 07:29:02;;;;;;;11.97;2.87;;;;;;;19.85;nan;97167.91;3531199;40;20697;-71
2021/06/14 07:31:30;;;;;;;6.10;2.60;;;;;;;19.10;nan;97166.16;3532420;40;20445;-70
2021/06/14 07:34:00;;;;;;;6.17;2.13;;;;;;;19.21;nan;97159.84;3523233;40;20449;-72
2021/06/14 07:36:30;;;;;;;13.13;2.60;;;;;;;19.08;nan;97157.50;3531966;40;20875;-70
2021/06/14 07:38:59;;;;;;;6.40;2.27;;;;;;;19.70;nan;97159.59;3533178;40;20483;-71
2021/06/14 07:41:31;;;;;;;10.17;3.20;;;;;;;19.70;nan;97149.81;3529579;40;20509;-70
2021/06/14 07:43:59;;;;;;;16.63;3.70;;;;;;;19.94;nan;97143.09;3530638;40;20648;-70
2021/06/14 07:46:27;;;;;;;6.33;2.50;;;;;;;19.63;nan;97150.53;3532265;40;20519;-70
2021/06/14 07:48:55;;;;;;;9.23;2.03;;;;;;;19.69;nan;97150.78;3524884;40;20492;-71
2021/06/14 07:51:23;;;;;;;7.77;2.80;;;;;;;20.20;nan;97158.31;3532464;40;20457;-70
2021/06/14 07:53:53;;;;;;;6.10;2.40;;;;;;;19.65;nan;97148.56;3524842;40;20528;-70
2021/06/14 07:56:23;;;;;;;5.77;1.90;;;;;;;19.87;nan;97145.50;3532216;40;20574;-72
2021/06/14 07:58:51;;;;;;;7.03;2.00;;;;;;;19.92;nan;97148.56;3530320;40;20850;-70
2021/06/14 08:01:20;;;;;;;5.80;2.77;;;;;;;20.28;nan;97156.53;3533743;40;20536;-70
2021/06/14 08:03:48;;;;;;;9.10;2.33;;;;;;;20.34;nan;97145.28;3529216;40;20474;-70
2021/06/14 08:06:16;;;;;;;10.30;2.67;;;;;;;20.96;nan;97148.94;3532000;40;20948;-70
2021/06/14 08:08:44;;;;;;;6.00;2.00;;;;;;;20.53;nan;97148.78;3531297;40;20819;-71
2021/06/14 08:11:12;;;;;;;23.57;11.43;;;;;;;20.68;nan;97143.75;3531030;40;20765;-70
2021/06/14 08:13:42;;;;;;;3.97;1.97;;;;;;;20.75;nan;97152.78;3532257;40;20457;-70
2021/06/14 08:16:22;;;;;;;7.70;2.17;;;;;;;21.03;nan;97145.50;3534586;40;20507;-70
2021/06/14 08:19:01;;;;;;;7.47;2.50;;;;;;;20.98;nan;97153.09;3534022;40;20506;-70
2021/06/14 08:21:40;;;;;;;6.20;2.23;;;;;;;20.89;nan;97144.22;3534020;40;20461;-69
2021/06/14 08:26:54;;;;;;;5.40;2.17;;;;;;;21.69;nan;97140.44;3536917;40;20469;-71
2021/06/14 08:29:24;;;;;;;4.57;1.90;;;;;;;21.98;nan;97136.53;3537439;40;20686;-70
2021/06/14 08:31:51;;;;;;;12.67;1.87;;;;;;;21.58;nan;97141.59;3531092;40;20473;-71
2021/06/14 08:34:19;;;;;;;8.33;2.37;;;;;;;21.79;nan;97145.66;3533699;40;20457;-71
2021/06/14 08:36:47;;;;;;;4.77;1.93;;;;;;;23.07;nan;97128.19;3532370;40;20560;-70
2021/06/14 08:39:15;;;;;;;7.70;2.57;;;;;;;21.71;nan;97135.78;3525202;40;20512;-71
2021/06/14 08:41:45;;;;;;;13.30;2.60;;;;;;;22.76;nan;97129.88;3531505;40;20846;-71
2021/06/14 08:44:13;;;;;;;8.67;2.50;;;;;;;22.38;nan;97130.41;3530248;40;20461;-70
2021/06/14 08:46:43;;;;;;;5.53;2.10;;;;;;;22.04;nan;97125.19;3515340;40;20478;-70
2021/06/14 08:49:15;;;;;;;12.83;2.73;;;;;;;22.85;nan;97111.00;3529488;40;20838;-70
2021/06/14 08:51:44;;;;;;;8.90;2.87;;;;;;;23.39;nan;97118.38;3522977;40;20975;-71
2021/06/14 08:54:12;;;;;;;5.70;1.93;;;;;;;22.83;nan;97129.03;3531391;40;20449;-70
2021/06/14 08:56:40;;;;;;;3.73;1.60;;;;;;;23.47;nan;97120.19;3529718;40;20847;-70
2021/06/14 08:59:08;;;;;;;14.37;2.90;;;;;;;23.12;nan;97122.31;3528215;40;20699;-70
2021/06/14 09:01:36;;;;;;;11.10;2.83;;;;;;;22.85;nan;97116.34;3529719;40;20534;-70
2021/06/14 09:04:05;;;;;;;8.83;2.10;;;;;;;23.29;nan;97109.75;3533963;40;20528;-71
2021/06/14 09:06:33;;;;;;;7.43;2.40;;;;;;;22.84;nan;97117.38;3529477;40;20457;-70
2021/06/14 09:09:03;;;;;;;1.90;1.50;;;;;;;22.63;nan;97112.56;3533021;40;20469;-70
2021/06/14 09:11:33;;;;;;;3.23;1.87;;;;;;;21.58;nan;97114.09;3532543;40;20949;-70
2021/06/14 09:14:02;;;;;;;6.30;2.27;;;;;;;22.44;nan;97120.91;3531679;40;20722;-71
2021/06/14 09:16:32;;;;;;;4.53;2.20;;;;;;;23.71;nan;97111.22;3524677;40;20492;-70
2021/06/14 09:19:00;;;;;;;6.33;2.30;;;;;;;24.08;nan;97117.69;3523179;40;20691;-70
2021/06/14 09:21:31;;;;;;;3.17;1.77;;;;;;;23.90;nan;97109.97;3529252;40;20477;-71
2021/06/14 09:24:01;;;;;;;5.20;2.00;;;;;;;23.81;nan;97094.97;3532977;40;20904;-71
2021/06/14 09:26:32;;;;;;;9.73;2.10;;;;;;;24.74;nan;97109.16;3533517;40;20462;-71
2021/06/14 09:29:01;;;;;;;17.00;4.30;;;;;;;24.53;nan;97115.19;3531920;40;20552;-71
2021/06/14 09:31:38;;;;;;;7.13;1.63;;;;;;;25.00;nan;97111.38;3533626;40;20753;-70
2021/06/14 09:34:07;;;;;;;7.40;1.70;;;;;;;25.51;nan;97105.28;3531577;40;20735;-71
2021/06/14 09:36:36;;;;;;;24.97;2.37;;;;;;;23.70;nan;97104.22;3519422;40;20785;-70
2021/06/14 09:39:11;;;;;;;5.90;2.17;;;;;;;23.65;nan;97098.53;3530758;40;20735;-70
2021/06/14 09:41:41;;;;;;;6.43;2.10;;;;;;;23.46;nan;97100.66;3535144;40;21130;-70
2021/06/14 09:44:09;;;;;;;3.50;1.50;;;;;;;24.84;nan;97099.00;3520453;40;20765;-70
2021/06/14 09:46:38;;;;;;;8.40;1.60;;;;;;;26.10;nan;97090.91;3531188;40;20448;-71
2021/06/14 09:49:06;;;;;;;5.83;2.20;;;;;;;26.00;nan;97091.22;3520965;40;20555;-71
2021/06/14 09:51:36;;;;;;;22.97;9.53;;;;;;;25.44;nan;97097.16;3530533;40;21181;-71
2021/06/14 09:54:04;;;;;;;15.83;2.30;;;;;;;26.80;nan;97083.88;3529916;40;20958;-71
2021/06/14 09:56:35;;;;;;;5.20;1.93;;;;;;;27.18;nan;97075.38;3530621;40;20696;-71
2021/06/14 09:59:07;;;;;;;11.23;1.93;;;;;;;25.24;nan;97080.81;3528644;40;20560;-71
2021/06/14 10:01:39;;;;;;;8.63;2.10;;;;;;;24.98;nan;97079.41;3533432;40;20801;-71
2021/06/14 10:04:10;;;;;;;6.70;1.73;;;;;;;23.92;nan;97085.72;3530615;40;20840;-70
2021/06/14 10:06:42;;;;;;;2.80;1.63;;;;;;;23.76;nan;97089.31;3523019;40;21138;-71
2021/06/14 10:09:12;;;;;;;7.53;1.73;;;;;;;23.91;nan;97084.88;3528707;40;20465;-70
2021/06/14 10:11:43;;;;;;;4.50;1.90;;;;;;;23.99;nan;97078.63;3530364;40;20494;-70
2021/06/14 10:14:12;;;;;;;4.87;1.70;;;;;;;24.09;nan;97076.56;3530065;40;20476;-70
2021/06/14 10:16:42;;;;;;;2.90;1.57;;;;;;;25.10;nan;97070.94;3529299;40;21044;-70
2021/06/14 10:19:11;;;;;;;26.90;14.93;;;;;;;25.06;nan;97067.78;3530394;40;20496;-70
2021/06/14 10:21:43;;;;;;;2.80;1.30;;;;;;;24.87;nan;97066.47;3528041;40;20579;-70
2021/06/14 10:24:13;;;;;;;5.53;1.70;;;;;;;25.08;nan;97054.22;3528877;40;20704;-71
2021/06/14 10:26:44;;;;;;;5.63;1.80;;;;;;;25.71;nan;97046.53;3513297;40;20466;-73
2021/06/14 10:29:14;;;;;;;9.17;1.80;;;;;;;25.43;nan;97053.44;3522254;40;20802;-71
2021/06/14 10:31:43;;;;;;;4.20;1.70;;;;;;;25.36;nan;97044.47;3531056;40;20703;-70
2021/06/14 10:34:13;;;;;;;8.97;2.40;;;;;;;26.14;nan;97052.75;3519284;40;20881;-71
2021/06/14 10:36:45;;;;;;;6.70;2.33;;;;;;;25.47;nan;97048.53;3530912;40;20516;-71
2021/06/14 10:39:14;;;;;;;8.53;2.90;;;;;;;25.70;nan;97045.69;3529863;40;20468;-71
2021/06/14 10:41:44;;;;;;;12.90;2.70;;;;;;;26.07;nan;97043.81;3527491;40;20728;-71
2021/06/14 10:44:12;;;;;;;10.80;2.20;;;;;;;25.89;nan;97043.41;3530738;40;20862;-72
2021/06/14 10:46:44;;;;;;;10.60;2.40;;;;;;;25.86;nan;97033.91;3527679;40;20494;-71
2021/06/14 10:49:14;;;;;;;14.03;2.43;;;;;;;25.15;nan;97026.50;3529705;40;20449;-71
2021/06/14 10:51:45;;;;;;;7.27;1.90;;;;;;;26.11;nan;97031.69;3531497;40;20487;-71
2021/06/14 10:54:15;;;;;;;3.10;1.80;;;;;;;27.21;nan;97027.44;3528597;40;20751;-71
2021/06/14 10:56:45;;;;;;;6.40;1.70;;;;;;;28.76;nan;97032.88;3529089;40;20559;-72
2021/06/14 10:59:14;;;;;;;9.43;2.87;;;;;;;29.30;nan;97022.75;3528926;40;20826;-71
2021/06/14 11:01:45;;;;;;;7.00;2.33;;;;;;;28.48;nan;97008.88;3530167;40;20741;-72
2021/06/14 11:04:24;;;;;;;4.57;1.40;;;;;;;27.21;nan;97026.63;3531287;40;20450;-71
2021/06/14 11:06:54;;;;;;;27.97;9.53;;;;;;;28.29;nan;97001.63;3526859;40;20543;-71
2021/06/14 11:09:23;;;;;;;47.97;3.23;;;;;;;27.39;nan;97010.78;3530782;40;20563;-71
2021/06/14 11:11:54;;;;;;;8.43;2.10;;;;;;;26.45;nan;97019.34;3530232;40;20441;-71
2021/06/14 11:14:34;;;;;;;4.87;2.30;;;;;;;26.22;nan;97015.03;3519604;40;20874;-71
2021/06/14 11:17:16;;;;;;;4.30;1.57;;;;;;;25.98;nan;97018.16;3530003;40;20469;-71
2021/06/14 11:19:45;;;;;;;13.07;2.70;;;;;;;28.79;nan;97004.66;3532918;40;20521;-72
2021/06/14 11:22:15;;;;;;;12.60;2.20;;;;;;;29.23;nan;96991.50;3529011;40;20750;-71
2021/06/14 11:24:43;;;;;;;9.13;1.60;;;;;;;29.98;nan;96997.09;3526589;40;20778;-71
2021/06/14 11:27:12;;;;;;;16.30;2.87;;;;;;;28.90;nan;96995.94;3528001;40;20618;-71
2021/06/14 11:29:45;;;;;;;6.47;1.97;;;;;;;28.97;nan;96994.06;3529165;40;20538;-71
2021/06/14 11:32:19;;;;;;;5.93;1.97;;;;;;;28.22;nan;96981.94;3529596;40;20938;-71
2021/06/14 11:34:51;;;;;;;6.20;2.10;;;;;;;28.07;nan;96991.06;3526721;40;20503;-71
2021/06/14 11:37:21;;;;;;;5.47;1.90;;;;;;;30.60;nan;96980.16;3528816;40;20742;-71
2021/06/14 11:40:00;;;;;;;3.50;1.50;;;;;;;28.61;nan;96980.28;3529034;40;20457;-71
2021/06/14 11:42:29;;;;;;;8.80;1.50;;;;;;;27.37;nan;96982.47;3521335;40;20582;-71
2021/06/14 11:45:00;;;;;;;7.00;2.10;;;;;;;27.68;nan;96978.38;3528975;40;20784;-72
2021/06/14 11:47:30;;;;;;;9.37;1.60;;;;;;;30.18;nan;96969.94;3526973;40;20702;-71
2021/06/14 11:50:00;;;;;;;2.93;1.43;;;;;;;26.98;nan;96979.38;3528434;40;20773;-70
2021/06/14 11:52:33;;;;;;;5.77;1.50;;;;;;;28.78;nan;96963.44;3512898;40;20470;-71
2021/06/14 11:55:03;;;;;;;8.53;2.13;;;;;;;30.28;nan;96967.53;3531785;40;21133;-71
2021/06/14 11:57:34;;;;;;;24.03;2.03;;;;;;;29.31;nan;96943.53;3533348;40;20488;-71
2021/06/14 12:00:02;;;;;;;6.37;2.10;;;;;;;30.78;nan;96949.63;3531859;40;20822;-71
2021/06/14 12:02:32;;;;;;;12.20;1.80;;;;;;;31.96;nan;96956.38;3530509;40;20690;-71